| time (UTC) | temp F | wind direction | speed knots | gust knots | rain 1hr in | rain 24hr in | rain mn in | humidity % | barometer mb |
| 20260510162340 | 81 | 145 | 0.0 | 2.6 | 0.00 | 0.02 | 0.02 | 55 | 1014.1 |
| 20260510161838 | 80 | 173 | 0.9 | 1.7 | 0.00 | 0.02 | 0.02 | 64 | 1014.1 |
| 20260510161554 | 80 | 44 | 0.0 | 0.0 | 0.00 | 0.00 | 0.02 | 60 | 1013.9 |
| 20260510161408 | 80 | 304 | 0.9 | 1.7 | 0.00 | 0.02 | 0.02 | 57 | 1014.1 |
| 20260510160848 | 79 | 109 | 0.0 | 1.7 | 0.00 | 0.02 | 0.02 | 66 | 1014.1 |
| 20260510160339 | 79 | 109 | 0.9 | 1.7 | 0.00 | 0.02 | 0.02 | 61 | 1014.2 |
| 20260510160005 | 78 | 263 | 0.9 | 0.0 | 0.00 | 0.00 | 0.02 | 59 | 1014.0 |
| 20260510155841 | 78 | 258 | 0.9 | 1.7 | 0.00 | 0.02 | 0.02 | 64 | 1014.2 |
| 20260510155341 | 77 | 175 | 0.0 | 4.3 | 0.00 | 0.02 | 0.02 | 59 | 1014.3 |
| 20260510154841 | 77 | 245 | 1.7 | 4.3 | 0.00 | 0.02 | 0.02 | 64 | 1014.3 |
| 20260510154552 | 76 | 302 | 0.9 | 0.0 | 0.00 | 0.00 | 0.02 | 62 | 1014.2 |
| 20260510154410 | 77 | 304 | 0.9 | 2.6 | 0.00 | 0.02 | 0.02 | 65 | 1014.4 |
| 20260510153849 | 76 | 207 | 0.0 | 2.6 | 0.00 | 0.02 | 0.02 | 63 | 1014.4 |
| 20260510153343 | 75 | 14 | 0.9 | 1.7 | 0.00 | 0.02 | 0.02 | 67 | 1014.5 |
| 20260510153025 | 74 | 42 | 0.9 | 0.0 | 0.00 | 0.00 | 0.02 | 67 | 1014.3 |
| 20260510152911 | 75 | 42 | 0.0 | 1.7 | 0.00 | 0.02 | 0.02 | 72 | 1014.5 |
| 20260510152349 | 75 | 43 | 0.9 | 1.7 | 0.00 | 0.02 | 0.02 | 72 | 1014.3 |
| 20260510151831 | 75 | 104 | 0.0 | 1.7 | 0.00 | 0.02 | 0.02 | 72 | 1014.3 |
| 20260510151618 | 74 | 104 | 0.9 | 0.0 | 0.00 | 0.00 | 0.02 | 69 | 1014.0 |
| 20260510151332 | 74 | 198 | 0.0 | 2.6 | 0.01 | 0.02 | 0.02 | 71 | 1014.2 |
| 20260510150858 | 74 | 234 | 1.7 | 2.6 | 0.01 | 0.02 | 0.02 | 71 | 1014.3 |
| 20260510150349 | 74 | 269 | 0.9 | 1.7 | 0.01 | 0.02 | 0.02 | 72 | 1014.1 |
| 20260510150100 | 73 | 217 | 0.9 | 0.0 | 0.00 | 0.00 | 0.02 | 72 | 1014.0 |
| 20260510150006 | 73 | 194 | 0.9 | 0.0 | 0.00 | 0.00 | 0.02 | 72 | 1014.0 |
| 20260510145849 | 73 | 105 | 0.9 | 1.7 | 0.01 | 0.02 | 0.02 | 74 | 1014.2 |
| 20260510145349 | 73 | 242 | 0.0 | 1.7 | 0.01 | 0.02 | 0.02 | 77 | 1014.3 |
| 20260510144849 | 72 | 264 | 0.0 | 2.6 | 0.01 | 0.02 | 0.02 | 75 | 1014.3 |
| 20260510144547 | 72 | 257 | 0.9 | 0.0 | 0.00 | 0.00 | 0.02 | 75 | 1014.1 |
| 20260510144348 | 72 | 342 | 0.9 | 3.5 | 0.01 | 0.02 | 0.02 | 78 | 1014.2 |
| 20260510143831 | 72 | 150 | 0.9 | 3.5 | 0.01 | 0.02 | 0.02 | 77 | 1014.2 |
| 20260510143355 | 71 | 223 | 0.9 | 3.5 | 0.01 | 0.02 | 0.02 | 79 | 1014.2 |
| 20260510143056 | 70 | 228 | 0.9 | 0.0 | 0.00 | 0.00 | 0.02 | 79 | 1014.1 |
| 20260510142856 | 71 | 84 | 0.9 | 3.5 | 0.01 | 0.02 | 0.02 | 80 | 1014.2 |
| 20260510142336 | 70 | 95 | 0.9 | 1.7 | 0.01 | 0.02 | 0.02 | 83 | 1014.2 |
| 20260510141835 | 70 | 213 | 0.9 | 1.7 | 0.01 | 0.02 | 0.02 | 82 | 1014.1 |
| 20260510141508 | 69 | 34 | 0.9 | 0.0 | 0.00 | 0.00 | 0.01 | 84 | 1014.1 |
| 20260510141333 | 70 | 9 | 0.0 | 1.7 | 0.00 | 0.01 | 0.01 | 84 | 1014.3 |
| 20260510140832 | 69 | 236 | 0.0 | 1.7 | 0.00 | 0.01 | 0.01 | 83 | 1014.3 |
| 20260510140344 | 69 | 236 | 0.9 | 1.7 | 0.00 | 0.01 | 0.01 | 84 | 1014.3 |
| 20260510140030 | 68 | 127 | 0.9 | 0.0 | 0.00 | 0.00 | 0.01 | 85 | 1014.1 |
| 20260510135844 | 68 | 126 | 0.0 | 2.6 | 0.00 | 0.01 | 0.01 | 85 | 1014.3 |
| 20260510135341 | 68 | 248 | 0.0 | 2.6 | 0.00 | 0.01 | 0.01 | 86 | 1014.4 |
| 20260510134843 | 67 | 214 | 0.0 | 2.6 | 0.00 | 0.01 | 0.01 | 88 | 1014.3 |
| 20260510134518 | 67 | 321 | 0.0 | 0.0 | 0.00 | 0.00 | 0.01 | 89 | 1014.2 |
| 20260510134343 | 67 | 317 | 0.9 | 2.6 | 0.00 | 0.01 | 0.01 | 90 | 1014.3 |
| 20260510133840 | 67 | 252 | 0.0 | 0.9 | 0.00 | 0.01 | 0.01 | 90 | 1014.3 |
| 20260510133409 | 67 | 226 | 0.0 | 2.6 | 0.00 | 0.01 | 0.01 | 90 | 1014.3 |
| 20260510133047 | 66 | 227 | 0.0 | 0.0 | 0.00 | 0.00 | 0.01 | 90 | 1014.0 |
| 20260510132849 | 67 | 225 | 0.0 | 2.6 | 0.00 | 0.01 | 0.01 | 91 | 1014.1 |
| 20260510132349 | 66 | 81 | 0.0 | 1.7 | 0.00 | 0.01 | 0.01 | 92 | 1014.0 |
| 20260510131831 | 66 | 140 | 0.9 | 1.7 | 0.00 | 0.01 | 0.01 | 93 | 1014.0 |
| 20260510131537 | 65 | 206 | 0.0 | 0.0 | 0.00 | 0.00 | 0.01 | 93 | 1013.8 |
| 20260510131331 | 66 | 206 | 0.9 | 0.9 | 0.00 | 0.01 | 0.01 | 93 | 1014.0 |
| 20260510130829 | 66 | 267 | 0.9 | 1.7 | 0.00 | 0.01 | 0.01 | 94 | 1014.0 |
| 20260510130343 | 65 | 295 | 0.9 | 1.7 | 0.00 | 0.01 | 0.01 | 94 | 1013.9 |
| 20260510130008 | 65 | 257 | 0.9 | 0.0 | 0.00 | 0.00 | 0.01 | 94 | 1013.7 |
| 20260510125841 | 65 | 344 | 0.9 | 2.6 | 0.00 | 0.01 | 0.01 | 94 | 1013.9 |
| 20260510125341 | 65 | 326 | 0.9 | 2.6 | 0.00 | 0.01 | 0.01 | 94 | 1013.8 |
| 20260510124909 | 65 | 269 | 0.9 | 1.7 | 0.00 | 0.01 | 0.01 | 94 | 1013.8 |
| 20260510124535 | 64 | 336 | 0.9 | 0.0 | 0.00 | 0.00 | 0.01 | 94 | 1013.6 |
| 20260510124343 | 65 | 337 | 0.9 | 1.7 | 0.00 | 0.01 | 0.01 | 94 | 1013.8 |
| 20260510123842 | 65 | 286 | 0.9 | 1.7 | 0.00 | 0.01 | 0.01 | 94 | 1013.8 |
| 20260510123343 | 64 | 162 | 0.9 | 1.7 | 0.00 | 0.01 | 0.01 | 94 | 1013.8 |
| 20260510123030 | 64 | 259 | 0.0 | 0.0 | 0.00 | 0.00 | 0.01 | 94 | 1013.6 |
| 20260510122910 | 64 | 259 | 0.0 | 0.9 | 0.00 | 0.01 | 0.01 | 95 | 1013.8 |
| 20260510122347 | 64 | 259 | 0.0 | 1.7 | 0.00 | 0.01 | 0.01 | 94 | 1013.7 |
| 20260510121846 | 64 | 259 | 0.0 | 2.6 | 0.00 | 0.01 | 0.01 | 94 | 1013.7 |
| 20260510121552 | 63 | 295 | 0.0 | 0.0 | 0.00 | 0.00 | 0.01 | 95 | 1013.4 |
| 20260510121348 | 64 | 286 | 0.0 | 2.6 | 0.00 | 0.01 | 0.01 | 95 | 1013.7 |
| 20260510120829 | 63 | 321 | 0.0 | 1.7 | 0.00 | 0.01 | 0.01 | 95 | 1013.6 |
| 20260510120411 | 63 | 337 | 0.0 | 0.9 | 0.00 | 0.01 | 0.01 | 94 | 1013.6 |
| 20260510120056 | 62 | 337 | 0.0 | 0.0 | 0.00 | 0.00 | 0.01 | 94 | 1013.4 |
| 20260510120009 | 62 | 337 | 0.0 | 0.0 | 0.00 | 0.00 | 0.01 | 94 | 1013.4 |
| 20260510115851 | 62 | 337 | 0.0 | 0.9 | 0.00 | 0.01 | 0.01 | 94 | 1013.6 |
| 20260510115352 | 62 | 337 | 0.0 | 0.9 | 0.00 | 0.01 | 0.01 | 94 | 1013.5 |
| 20260510114849 | 62 | 337 | 0.0 | 0.0 | 0.00 | 0.01 | 0.01 | 94 | 1013.4 |
| 20260510114547 | 61 | 337 | 0.0 | 0.0 | 0.00 | 0.00 | 0.01 | 94 | 1013.3 |
| 20260510114349 | 62 | 337 | 0.0 | 0.0 | 0.00 | 0.01 | 0.01 | 94 | 1013.4 |
| 20260510113851 | 62 | 337 | 0.0 | 0.0 | 0.00 | 0.01 | 0.01 | 94 | 1013.3 |
| 20260510113352 | 61 | 337 | 0.0 | 0.0 | 0.00 | 0.01 | 0.01 | 94 | 1013.2 |
| 20260510113033 | 61 | 337 | 0.0 | 0.0 | 0.00 | 0.00 | 0.01 | 94 | 1012.9 |
| 20260510112850 | 61 | 337 | 0.0 | 0.0 | 0.00 | 0.01 | 0.01 | 94 | 1013.1 |
| 20260510112349 | 61 | 337 | 0.0 | 0.0 | 0.00 | 0.01 | 0.01 | 94 | 1013.0 |
| 20260510111830 | 61 | 337 | 0.0 | 0.0 | 0.00 | 0.01 | 0.01 | 94 | 1012.9 |
| 20260510111527 | 61 | 337 | 0.0 | 0.0 | 0.00 | 0.00 | 0.01 | 94 | 1012.7 |
| 20260510111359 | 61 | 337 | 0.0 | 0.0 | 0.00 | 0.01 | 0.01 | 94 | 1012.9 |
| 20260510110839 | 61 | 337 | 0.0 | 0.0 | 0.00 | 0.01 | 0.01 | 94 | 1012.9 |
| 20260510110353 | 61 | 337 | 0.0 | 0.0 | 0.00 | 0.01 | 0.01 | 94 | 1012.9 |
| 20260510110030 | 61 | 337 | 0.0 | 0.0 | 0.00 | 0.00 | 0.01 | 94 | 1012.6 |
| 20260510105854 | 61 | 337 | 0.0 | 0.0 | 0.00 | 0.01 | 0.01 | 94 | 1012.8 |
| 20260510105355 | 61 | 337 | 0.0 | 0.0 | 0.00 | 0.01 | 0.01 | 94 | 1012.6 |
| 20260510104851 | 61 | 337 | 0.0 | 0.0 | 0.00 | 0.01 | 0.01 | 94 | 1012.6 |
| 20260510104553 | 60 | 282 | 0.0 | 0.0 | 0.00 | 0.00 | 0.01 | 94 | 1012.4 |
| 20260510104331 | 61 | 360 | 0.0 | 0.0 | 0.00 | 0.01 | 0.01 | 94 | 1012.4 |
| 20260510103858 | 61 | 5 | 0.0 | 0.0 | 0.00 | 0.01 | 0.01 | 94 | 1012.3 |
| 20260510103340 | 61 | 5 | 0.0 | 0.0 | 0.00 | 0.01 | 0.01 | 94 | 1012.3 |
| 20260510103025 | 60 | 5 | 0.0 | 0.0 | 0.00 | 0.00 | 0.01 | 94 | 1012.1 |
| 20260510102842 | 61 | 5 | 0.0 | 0.0 | 0.00 | 0.01 | 0.01 | 94 | 1012.2 |
| 20260510102345 | 61 | 5 | 0.0 | 0.0 | 0.00 | 0.01 | 0.01 | 94 | 1012.1 |
| 20260510101850 | 61 | 5 | 0.0 | 0.0 | 0.00 | 0.01 | 0.01 | 94 | 1012.0 |
| 20260510101512 | 60 | 5 | 0.0 | 0.0 | 0.00 | 0.00 | 0.01 | 94 | 1011.8 |
| 20260510101349 | 61 | 5 | 0.0 | 0.0 | 0.01 | 0.01 | 0.01 | 94 | 1011.9 |
| 20260510100830 | 61 | 360 | 0.0 | 0.9 | 0.01 | 0.01 | 0.01 | 94 | 1011.9 |
| 20260510100351 | 61 | 5 | 0.0 | 0.9 | 0.01 | 0.01 | 0.01 | 94 | 1011.9 |
| 20260510100028 | 60 | 5 | 0.0 | 0.0 | 0.00 | 0.00 | 0.01 | 94 | 1011.7 |
| 20260510095833 | 61 | 360 | 0.0 | 0.0 | 0.01 | 0.01 | 0.01 | 94 | 1011.9 |
| 20260510095337 | 61 | 5 | 0.0 | 0.0 | 0.01 | 0.01 | 0.01 | 94 | 1011.9 |
| 20260510094900 | 61 | 5 | 0.0 | 0.0 | 0.01 | 0.01 | 0.01 | 94 | 1011.8 |
| 20260510094558 | 61 | 5 | 0.0 | 0.0 | 0.00 | 0.00 | 0.01 | 94 | 1011.6 |
| 20260510094341 | 61 | 5 | 0.0 | 0.9 | 0.01 | 0.01 | 0.01 | 94 | 1011.7 |
| 20260510093843 | 61 | 5 | 0.0 | 0.9 | 0.01 | 0.01 | 0.01 | 94 | 1011.7 |
| 20260510093411 | 61 | 360 | 0.0 | 0.0 | 0.01 | 0.01 | 0.01 | 94 | 1011.7 |
| 20260510093017 | 61 | 360 | 0.0 | 0.0 | 0.00 | 0.00 | 0.01 | 94 | 1011.6 |
| 20260510092850 | 61 | 5 | 0.0 | 0.0 | 0.01 | 0.01 | 0.01 | 94 | 1011.7 |
| 20260510092352 | 61 | 360 | 0.0 | 0.0 | 0.01 | 0.01 | 0.01 | 94 | 1011.6 |
| 20260510091833 | 61 | 5 | 0.0 | 0.0 | 0.01 | 0.01 | 0.01 | 94 | 1011.5 |
| 20260510091542 | 61 | 5 | 0.0 | 0.0 | 0.00 | 0.00 | 0.00 | 94 | 1011.3 |
| 20260510091334 | 61 | 5 | 0.0 | 0.0 | 0.00 | 0.00 | 0.00 | 94 | 1011.4 |
| 20260510090835 | 61 | 5 | 0.0 | 0.0 | 0.00 | 0.00 | 0.00 | 94 | 1011.3 |
| 20260510090412 | 61 | 5 | 0.0 | 0.0 | 0.00 | 0.00 | 0.00 | 94 | 1011.2 |
| 20260510090057 | 61 | 5 | 0.0 | 0.0 | 0.00 | 0.00 | 0.00 | 93 | 1011.0 |
| 20260510085853 | 61 | 5 | 0.0 | 0.0 | 0.00 | 0.00 | 0.00 | 93 | 1011.1 |
| 20260510085353 | 61 | 5 | 0.0 | 0.0 | 0.00 | 0.00 | 0.00 | 93 | 1011.1 |
| 20260510084853 | 61 | 360 | 0.0 | 0.0 | 0.00 | 0.00 | 0.00 | 93 | 1011.0 |
| 20260510084519 | 61 | 5 | 0.0 | 0.0 | 0.00 | 0.00 | 0.00 | 93 | 1010.8 |
| 20260510084333 | 61 | 360 | 0.0 | 0.0 | 0.00 | 0.00 | 0.00 | 93 | 1011.0 |
| 20260510083901 | 61 | 5 | 0.0 | 0.0 | 0.00 | 0.00 | 0.00 | 93 | 1010.9 |
| 20260510083342 | 61 | 360 | 0.0 | 0.0 | 0.00 | 0.00 | 0.00 | 93 | 1011.1 |
| 20260510083048 | 61 | 5 | 0.0 | 0.0 | 0.00 | 0.00 | 0.00 | 93 | 1010.9 |
| 20260510082843 | 61 | 360 | 0.0 | 0.0 | 0.00 | 0.00 | 0.00 | 93 | 1011.1 |
| 20260510082345 | 61 | 360 | 0.0 | 0.0 | 0.00 | 0.00 | 0.00 | 93 | 1011.1 |
| 20260510081843 | 61 | 5 | 0.0 | 0.0 | 0.00 | 0.00 | 0.00 | 93 | 1011.2 |
| 20260510081548 | 61 | 5 | 0.0 | 0.0 | 0.00 | 0.00 | 0.00 | 93 | 1010.9 |
| 20260510081344 | 61 | 5 | 0.0 | 0.0 | 0.00 | 0.00 | 0.00 | 93 | 1011.1 |
| 20260510080846 | 61 | 360 | 0.0 | 0.0 | 0.00 | 0.00 | 0.00 | 93 | 1011.0 |
| 20260510080351 | 61 | 5 | 0.0 | 0.0 | 0.00 | 0.00 | 0.00 | 93 | 1011.0 |
| 20260510080022 | 61 | 5 | 0.0 | 0.0 | 0.00 | 0.00 | 0.00 | 93 | 1010.8 |
| 20260510075849 | 61 | 5 | 0.0 | 0.0 | 0.00 | 0.00 | 0.00 | 93 | 1011.0 |
| 20260510075350 | 61 | 5 | 0.0 | 0.0 | 0.00 | 0.00 | 0.00 | 93 | 1011.0 |
| 20260510074831 | 61 | 5 | 0.0 | 0.0 | 0.00 | 0.00 | 0.00 | 93 | 1010.9 |
| 20260510074556 | 61 | 360 | 0.0 | 0.0 | 0.00 | 0.00 | 0.00 | 93 | 1010.7 |
| 20260510074331 | 61 | 5 | 0.0 | 0.0 | 0.00 | 0.00 | 0.00 | 93 | 1010.8 |
| 20260510073833 | 62 | 5 | 0.0 | 0.0 | 0.00 | 0.00 | 0.00 | 93 | 1010.9 |
| 20260510073333 | 62 | 360 | 0.0 | 0.0 | 0.00 | 0.00 | 0.00 | 93 | 1010.9 |
| 20260510073052 | 61 | 5 | 0.0 | 0.0 | 0.00 | 0.00 | 0.00 | 93 | 1010.7 |
| 20260510072902 | 62 | 5 | 0.0 | 0.0 | 0.00 | 0.00 | 0.00 | 93 | 1010.8 |
| 20260510072342 | 62 | 5 | 0.0 | 0.0 | 0.00 | 0.00 | 0.00 | 93 | 1010.7 |
| 20260510071843 | 62 | 5 | 0.0 | 0.0 | 0.00 | 0.00 | 0.00 | 93 | 1010.7 |
| 20260510071521 | 61 | 5 | 0.0 | 0.0 | 0.00 | 0.00 | 0.00 | 93 | 1010.5 |
| 20260510071343 | 62 | 5 | 0.0 | 0.0 | 0.00 | 0.00 | 0.00 | 93 | 1010.7 |
| 20260510070843 | 62 | 5 | 0.0 | 0.0 | 0.00 | 0.00 | 0.00 | 93 | 1010.7 |
| 20260510070352 | 62 | 5 | 0.0 | 0.0 | 0.00 | 0.00 | 0.00 | 93 | 1010.8 |
| 20260510070020 | 62 | 5 | 0.0 | 0.0 | 0.00 | 0.00 | 0.00 | 93 | 1010.7 |
| 20260510065833 | 62 | 360 | 0.0 | 0.0 | 0.00 | 0.00 | 0.00 | 93 | 1010.9 |
| 20260510065334 | 62 | 5 | 0.0 | 0.0 | 0.00 | 0.00 | 0.00 | 93 | 1010.9 |
| 20260510064835 | 62 | 5 | 0.0 | 0.0 | 0.00 | 0.00 | 0.00 | 93 | 1010.8 |
| 20260510064510 | 61 | 360 | 0.0 | 0.0 | 0.00 | 0.00 | 0.00 | 93 | 1010.7 |
| 20260510064336 | 62 | 5 | 0.0 | 0.0 | 0.00 | 0.00 | 0.00 | 93 | 1010.9 |
| 20260510063834 | 62 | 360 | 0.0 | 0.0 | 0.00 | 0.00 | 0.00 | 93 | 1010.8 |
| 20260510063334 | 62 | 5 | 0.0 | 0.0 | 0.00 | 0.00 | 0.00 | 93 | 1010.8 |
| 20260510063055 | 62 | 360 | 0.0 | 0.0 | 0.00 | 0.00 | 0.00 | 93 | 1010.5 |
| 20260510062836 | 62 | 5 | 0.0 | 0.0 | 0.00 | 0.00 | 0.00 | 93 | 1010.7 |
| 20260510062339 | 62 | 5 | 0.0 | 0.0 | 0.00 | 0.00 | 0.00 | 93 | 1010.6 |
| 20260510061841 | 62 | 5 | 0.0 | 0.0 | 0.00 | 0.00 | 0.00 | 93 | 1010.6 |
| 20260510061539 | 62 | 5 | 0.0 | 0.0 | 0.00 | 0.00 | 0.00 | 93 | 1010.4 |
| 20260510061342 | 62 | 5 | 0.0 | 0.0 | 0.00 | 0.00 | 0.00 | 93 | 1010.7 |
| 20260510060843 | 62 | 5 | 0.0 | 0.0 | 0.00 | 0.00 | 0.00 | 93 | 1010.7 |
| 20260510060351 | 62 | 5 | 0.0 | 0.0 | 0.00 | 0.00 | 0.00 | 93 | 1010.8 |
| 20260510060041 | 62 | 360 | 0.0 | 0.0 | 0.00 | 0.00 | 0.00 | 93 | 1010.7 |
| 20260510055900 | 63 | 5 | 0.0 | 0.0 | 0.00 | 0.00 | 0.00 | 93 | 1010.8 |
| 20260510055407 | 63 | 5 | 0.0 | 0.0 | 0.00 | 0.00 | 0.00 | 93 | 1010.9 |
| 20260510054848 | 63 | 5 | 0.0 | 0.0 | 0.00 | 0.00 | 0.00 | 93 | 1010.9 |
| 20260510054547 | 62 | 5 | 0.0 | 0.0 | 0.00 | 0.00 | 0.00 | 93 | 1010.8 |
| 20260510054350 | 63 | 5 | 0.0 | 0.0 | 0.00 | 0.00 | 0.00 | 93 | 1011.0 |
| 20260510053852 | 63 | 5 | 0.0 | 0.0 | 0.00 | 0.00 | 0.00 | 93 | 1011.0 |
| 20260510053350 | 63 | 5 | 0.0 | 0.0 | 0.00 | 0.00 | 0.00 | 93 | 1011.0 |
| 20260510053037 | 62 | 5 | 0.0 | 0.0 | 0.00 | 0.00 | 0.00 | 93 | 1010.9 |
| 20260510052852 | 63 | 360 | 0.0 | 0.9 | 0.00 | 0.00 | 0.00 | 93 | 1011.1 |
| 20260510052353 | 63 | 360 | 0.0 | 0.9 | 0.00 | 0.00 | 0.00 | 93 | 1011.1 |
| 20260510051833 | 63 | 360 | 0.0 | 0.0 | 0.00 | 0.00 | 0.00 | 93 | 1011.2 |
| 20260510051503 | 62 | 5 | 0.0 | 0.0 | 0.00 | 0.00 | 0.00 | 93 | 1011.2 |
| 20260510051358 | 63 | 5 | 0.0 | 0.0 | 0.00 | 0.00 | 0.00 | 93 | 1011.4 |
| 20260510050838 | 63 | 5 | 0.0 | 0.9 | 0.00 | 0.00 | 0.00 | 93 | 1011.3 |
| 20260510050351 | 63 | 5 | 0.0 | 0.9 | 0.00 | 0.00 | 0.00 | 93 | 1011.2 |
| 20260510050007 | 63 | 5 | 0.0 | 0.0 | 0.00 | 0.00 | 0.00 | 93 | 1011.1 |
| 20260510045848 | 63 | 360 | 0.0 | 0.9 | 0.00 | 0.00 | 0.00 | 93 | 1011.3 |
| 20260510045348 | 63 | 5 | 0.0 | 0.0 | 0.00 | 0.00 | 0.00 | 93 | 1011.3 |
| 20260510044916 | 63 | 5 | 0.0 | 0.0 | 0.00 | 0.00 | 0.00 | 93 | 1011.5 |
| 20260510044536 | 63 | 5 | 0.0 | 0.0 | 0.00 | 0.00 | 0.00 | 92 | 1011.4 |
| 20260510044355 | 63 | 360 | 0.0 | 0.0 | 0.00 | 0.00 | 0.00 | 92 | 1011.4 |
| 20260510043856 | 63 | 5 | 0.0 | 0.0 | 0.00 | 0.00 | 0.00 | 92 | 1011.4 |
| 20260510043356 | 63 | 5 | 0.0 | 0.0 | 0.00 | 0.00 | 0.00 | 92 | 1011.3 |
| 20260510043004 | 63 | 5 | 0.0 | 0.0 | 0.00 | 0.00 | 0.00 | 92 | 1011.2 |
| 20260510042834 | 63 | 360 | 0.0 | 0.0 | 0.00 | 0.00 | 0.00 | 92 | 1011.4 |
| 20260510042330 | 63 | 5 | 0.0 | 0.0 | 0.00 | 0.00 | 0.00 | 92 | 1011.3 |
| 20260510041830 | 63 | 5 | 0.0 | 0.0 | 0.00 | 0.00 | 0.00 | 92 | 1011.3 |
| 20260510041553 | 63 | 5 | 0.0 | 0.0 | 0.00 | 0.00 | 0.00 | 92 | 1011.1 |
| 20260510041332 | 63 | 360 | 0.0 | 0.0 | 0.00 | 0.00 | 0.00 | 92 | 1011.2 |
| 20260510040831 | 63 | 360 | 0.0 | 0.0 | 0.00 | 0.00 | 0.00 | 92 | 1011.2 |
| 20260510040344 | 63 | 5 | 0.0 | 0.0 | 0.00 | 0.00 | 0.00 | 92 | 1011.3 |
| 20260510040016 | 63 | 360 | 0.0 | 0.0 | 0.00 | 0.00 | 0.00 | 92 | 1011.1 |
| 20260510035911 | 63 | 5 | 0.0 | 0.0 | 0.00 | 0.00 | 0.00 | 92 | 1011.2 |
| 20260510035352 | 63 | 360 | 0.0 | 0.0 | 0.00 | 0.00 | 0.00 | 92 | 1011.1 |
| 20260510034850 | 63 | 5 | 0.0 | 0.0 | 0.00 | 0.00 | 0.00 | 92 | 1011.2 |
| 20260510034543 | 63 | 5 | 0.0 | 0.0 | 0.00 | 0.00 | 0.00 | 92 | 1011.0 |
| 20260510034354 | 63 | 5 | 0.0 | 0.0 | 0.00 | 0.00 | 0.00 | 92 | 1011.1 |
| 20260510033854 | 63 | 5 | 0.0 | 0.0 | 0.00 | 0.00 | 0.00 | 92 | 1011.0 |
| 20260510033355 | 63 | 5 | 0.0 | 0.0 | 0.00 | 0.00 | 0.00 | 92 | 1011.0 |
| 20260510033024 | 63 | 5 | 0.0 | 0.0 | 0.00 | 0.00 | 0.00 | 92 | 1011.0 |
| 20260510032851 | 64 | 5 | 0.0 | 0.0 | 0.00 | 0.00 | 0.00 | 92 | 1011.1 |
| 20260510032351 | 64 | 5 | 0.0 | 0.0 | 0.00 | 0.00 | 0.00 | 92 | 1011.1 |
| 20260510031849 | 64 | 5 | 0.0 | 0.0 | 0.00 | 0.00 | 0.00 | 92 | 1011.0 |
| 20260510031516 | 63 | 5 | 0.0 | 0.0 | 0.00 | 0.00 | 0.00 | 92 | 1010.8 |
| 20260510031418 | 64 | 5 | 0.0 | 0.0 | 0.00 | 0.00 | 0.00 | 92 | 1011.0 |
| 20260510030857 | 64 | 360 | 0.0 | 0.0 | 0.00 | 0.00 | 0.00 | 92 | 1010.9 |
| 20260510030349 | 64 | 360 | 0.0 | 0.0 | 0.00 | 0.00 | 0.00 | 92 | 1011.0 |
| 20260510030103 | 63 | 360 | 0.0 | 0.0 | 0.00 | 0.00 | 0.00 | 92 | 1010.7 |
| 20260510030004 | 64 | 5 | 0.0 | 0.0 | 0.00 | 0.00 | 0.00 | 92 | 1010.7 |
| 20260510025849 | 64 | 5 | 0.0 | 0.0 | 0.00 | 0.00 | 0.00 | 92 | 1010.8 |
| 20260510025417 | 64 | 360 | 0.0 | 0.0 | 0.00 | 0.01 | 0.00 | 91 | 1010.9 |
| 20260510024855 | 64 | 360 | 0.0 | 0.0 | 0.00 | 0.01 | 0.00 | 91 | 1010.9 |
| 20260510024537 | 64 | 5 | 0.0 | 0.0 | 0.00 | 0.00 | 0.00 | 91 | 1010.7 |
| 20260510024356 | 64 | 5 | 0.0 | 0.0 | 0.00 | 0.01 | 0.00 | 91 | 1010.8 |
| 20260510023853 | 64 | 360 | 0.0 | 0.0 | 0.00 | 0.01 | 0.00 | 91 | 1010.8 |
| 20260510023334 | 64 | 360 | 0.0 | 0.0 | 0.00 | 0.01 | 0.00 | 91 | 1010.8 |
| 20260510023100 | 64 | 5 | 0.0 | 0.0 | 0.00 | 0.00 | 0.00 | 91 | 1010.6 |
| 20260510023002 | 64 | 360 | 0.0 | 0.0 | 0.00 | 0.00 | 0.00 | 91 | 1010.7 |
| 20260510022834 | 64 | 360 | 0.0 | 0.0 | 0.00 | 0.01 | 0.00 | 91 | 1010.9 |
| 20260510022336 | 64 | 5 | 0.0 | 0.0 | 0.00 | 0.01 | 0.00 | 91 | 1010.8 |
| 20260510021836 | 65 | 5 | 0.0 | 0.0 | 0.00 | 0.01 | 0.00 | 91 | 1010.8 |
| 20260510021544 | 64 | 360 | 0.0 | 0.0 | 0.00 | 0.00 | 0.00 | 91 | 1010.6 |
| 20260510021336 | 65 | 5 | 0.0 | 0.0 | 0.00 | 0.01 | 0.00 | 91 | 1010.7 |
| 20260510020835 | 65 | 5 | 0.0 | 0.0 | 0.00 | 0.01 | 0.00 | 91 | 1010.7 |
| 20260510020347 | 65 | 5 | 0.0 | 0.0 | 0.00 | 0.01 | 0.00 | 91 | 1010.6 |
| 20260510020010 | 64 | 360 | 0.0 | 0.0 | 0.00 | 0.00 | 0.00 | 91 | 1010.5 |
| 20260510015847 | 65 | 360 | 0.0 | 0.0 | 0.00 | 0.01 | 0.00 | 91 | 1010.6 |
| 20260510015348 | 65 | 360 | 0.0 | 0.0 | 0.00 | 0.01 | 0.00 | 91 | 1010.8 |
| 20260510014847 | 65 | 5 | 0.0 | 0.0 | 0.00 | 0.01 | 0.00 | 90 | 1010.6 |
| 20260510014600 | 65 | 360 | 0.0 | 0.0 | 0.00 | 0.00 | 0.00 | 90 | 1010.5 |
| 20260510014502 | 65 | 5 | 0.0 | 0.0 | 0.00 | 0.00 | 0.00 | 90 | 1010.4 |
| 20260510014411 | 65 | 5 | 0.0 | 0.0 | 0.00 | 0.01 | 0.00 | 90 | 1010.6 |
| 20260510013851 | 65 | 360 | 0.0 | 0.0 | 0.00 | 0.01 | 0.00 | 90 | 1010.4 |
| 20260510013353 | 66 | 5 | 0.0 | 0.0 | 0.00 | 0.01 | 0.00 | 90 | 1010.2 |
| 20260510013010 | 65 | 5 | 0.0 | 0.0 | 0.00 | 0.00 | 0.00 | 90 | 1010.0 |
| 20260510012834 | 66 | 5 | 0.0 | 0.0 | 0.00 | 0.01 | 0.00 | 90 | 1010.2 |
| 20260510012334 | 66 | 360 | 0.0 | 0.0 | 0.00 | 0.01 | 0.00 | 90 | 1010.2 |
| 20260510011835 | 66 | 360 | 0.0 | 0.0 | 0.00 | 0.01 | 0.00 | 89 | 1010.0 |
| 20260510011601 | 66 | 5 | 0.0 | 0.0 | 0.00 | 0.00 | 0.00 | 89 | 1009.9 |
| 20260510011337 | 67 | 360 | 0.0 | 0.0 | 0.00 | 0.01 | 0.00 | 89 | 1010.0 |
| 20260510010903 | 67 | 5 | 0.0 | 0.0 | 0.00 | 0.01 | 0.00 | 89 | 1010.0 |
| 20260510010336 | 67 | 5 | 0.0 | 0.0 | 0.00 | 0.01 | 0.00 | 89 | 1010.0 |
| 20260510010006 | 67 | 5 | 0.0 | 0.0 | 0.00 | 0.00 | 0.00 | 88 | 1009.8 |
| 20260510005837 | 67 | 5 | 0.0 | 0.0 | 0.00 | 0.01 | 0.00 | 88 | 1010.0 |
| 20260510005405 | 67 | 5 | 0.0 | 0.0 | 0.00 | 0.01 | 0.00 | 88 | 1009.9 |
| 20260510004840 | 67 | 360 | 0.0 | 0.0 | 0.00 | 0.01 | 0.00 | 87 | 1009.8 |
| 20260510004534 | 67 | 360 | 0.0 | 0.0 | 0.00 | 0.00 | 0.00 | 87 | 1009.7 |
| 20260510004340 | 68 | 5 | 0.0 | 0.0 | 0.00 | 0.01 | 0.00 | 87 | 1009.8 |
| 20260510003840 | 68 | 360 | 0.0 | 0.0 | 0.00 | 0.01 | 0.00 | 87 | 1009.8 |
| 20260510003342 | 68 | 5 | 0.0 | 0.0 | 0.00 | 0.01 | 0.00 | 87 | 1009.6 |
| 20260510003024 | 68 | 5 | 0.0 | 0.0 | 0.00 | 0.00 | 0.00 | 87 | 1009.5 |
| 20260510002843 | 68 | 5 | 0.0 | 0.0 | 0.00 | 0.01 | 0.00 | 87 | 1009.7 |
| 20260510002345 | 69 | 360 | 0.0 | 0.0 | 0.00 | 0.01 | 0.00 | 86 | 1009.7 |
| 20260510001845 | 69 | 360 | 0.0 | 0.0 | 0.00 | 0.01 | 0.00 | 86 | 1009.8 |
| 20260510001512 | 69 | 5 | 0.0 | 0.0 | 0.00 | 0.00 | 0.00 | 86 | 1009.7 |
| 20260510001344 | 69 | 360 | 0.0 | 0.0 | 0.00 | 0.01 | 0.00 | 86 | 1009.9 |
| 20260510000843 | 69 | 5 | 0.0 | 0.0 | 0.00 | 0.01 | 0.00 | 86 | 1009.8 |
| 20260510000334 | 70 | 360 | 0.0 | 0.0 | 0.00 | 0.01 | 0.00 | 85 | 1009.8 |
| 20260510000055 | 69 | 360 | 0.0 | 0.0 | 0.00 | 0.00 | 0.00 | 85 | 1009.6 |
| 20260509235834 | 70 | 5 | 0.0 | 0.0 | 0.00 | 0.01 | 0.00 | 85 | 1009.8 |
| 20260509235335 | 70 | 5 | 0.0 | 0.0 | 0.00 | 0.01 | 0.00 | 84 | 1009.8 |
| 20260509234839 | 70 | 5 | 0.0 | 0.0 | 0.00 | 0.01 | 0.00 | 84 | 1009.6 |
| 20260509234544 | 70 | 5 | 0.0 | 0.0 | 0.00 | 0.00 | 0.00 | 84 | 1009.4 |
| 20260509234334 | 71 | 360 | 0.0 | 0.0 | 0.00 | 0.01 | 0.00 | 84 | 1009.6 |
| 20260509233834 | 71 | 360 | 0.0 | 0.0 | 0.00 | 0.01 | 0.00 | 83 | 1009.4 |
| 20260509233337 | 71 | 5 | 0.0 | 0.0 | 0.00 | 0.01 | 0.00 | 83 | 1009.3 |
| 20260509233024 | 71 | 360 | 0.0 | 0.0 | 0.00 | 0.00 | 0.00 | 83 | 1009.0 |
| 20260509232839 | 72 | 5 | 0.0 | 0.0 | 0.00 | 0.01 | 0.00 | 83 | 1009.0 |
| 20260509232340 | 72 | 360 | 0.0 | 0.0 | 0.00 | 0.01 | 0.00 | 83 | 1008.9 |
| 20260509231840 | 72 | 360 | 0.0 | 0.0 | 0.00 | 0.01 | 0.00 | 83 | 1009.1 |
| 20260509231513 | 72 | 5 | 0.0 | 0.0 | 0.00 | 0.00 | 0.00 | 82 | 1009.0 |
| 20260509231341 | 72 | 5 | 0.0 | 0.0 | 0.00 | 0.01 | 0.00 | 82 | 1009.1 |
| 20260509230840 | 72 | 5 | 0.0 | 0.9 | 0.00 | 0.01 | 0.00 | 82 | 1008.9 |
| 20260509230354 | 72 | 5 | 0.0 | 0.9 | 0.00 | 0.01 | 0.00 | 82 | 1008.9 |
| 20260509230035 | 72 | 5 | 0.0 | 0.0 | 0.00 | 0.00 | 0.00 | 81 | 1008.8 |
| 20260509225853 | 73 | 5 | 0.9 | 0.9 | 0.00 | 0.01 | 0.00 | 81 | 1009.0 |
| 20260509225353 | 73 | 9 | 0.0 | 0.9 | 0.00 | 0.01 | 0.00 | 81 | 1008.9 |
| 20260509224854 | 73 | 29 | 0.0 | 0.9 | 0.00 | 0.01 | 0.00 | 80 | 1008.8 |
| 20260509224505 | 72 | 29 | 0.0 | 0.0 | 0.00 | 0.00 | 0.00 | 81 | 1008.7 |
| 20260509224333 | 73 | 30 | 0.0 | 0.9 | 0.00 | 0.01 | 0.00 | 81 | 1008.8 |
| 20260509223836 | 73 | 30 | 0.0 | 0.9 | 0.00 | 0.01 | 0.00 | 80 | 1008.9 |
| 20260509223337 | 73 | 343 | 0.0 | 0.9 | 0.00 | 0.01 | 0.00 | 79 | 1009.0 |
| 20260509223105 | 72 | 343 | 0.0 | 0.0 | 0.00 | 0.00 | 0.00 | 79 | 1008.8 |
| 20260509222838 | 73 | 55 | 0.0 | 0.9 | 0.00 | 0.01 | 0.00 | 80 | 1009.0 |
| 20260509222336 | 73 | 55 | 0.9 | 0.9 | 0.00 | 0.01 | 0.00 | 79 | 1008.9 |
| 20260509221835 | 73 | 331 | 0.0 | 1.7 | 0.00 | 0.01 | 0.00 | 79 | 1009.0 |
| 20260509221544 | 72 | 331 | 0.0 | 0.0 | 0.00 | 0.00 | 0.00 | 79 | 1009.0 |
| 20260509221336 | 73 | 330 | 0.0 | 1.7 | 0.00 | 0.01 | 0.00 | 79 | 1009.1 |
| 20260509220837 | 73 | 350 | 0.0 | 3.5 | 0.00 | 0.01 | 0.00 | 78 | 1009.1 |
| 20260509220348 | 73 | 355 | 0.9 | 3.5 | 0.00 | 0.01 | 0.00 | 77 | 1009.1 |
| 20260509220100 | 73 | 272 | 0.0 | 0.0 | 0.00 | 0.00 | 0.00 | 77 | 1008.9 |
| 20260509220004 | 73 | 80 | 0.0 | 0.0 | 0.00 | 0.00 | 0.00 | 77 | 1008.9 |
| 20260509215848 | 73 | 59 | 0.0 | 3.5 | 0.00 | 0.01 | 0.00 | 77 | 1009.0 |
| 20260509215347 | 73 | 340 | 0.0 | 2.6 | 0.00 | 0.01 | 0.00 | 77 | 1008.9 |
| 20260509214849 | 74 | 340 | 0.9 | 2.6 | 0.00 | 0.01 | 0.00 | 76 | 1008.9 |
| 20260509214551 | 73 | 348 | 0.9 | 0.0 | 0.00 | 0.00 | 0.00 | 76 | 1008.8 |
| 20260509214332 | 74 | 52 | 0.9 | 4.3 | 0.00 | 0.01 | 0.00 | 76 | 1008.9 |
| 20260509213830 | 74 | 13 | 0.9 | 1.7 | 0.00 | 0.01 | 0.00 | 78 | 1008.8 |
| 20260509213330 | 74 | 59 | 0.0 | 1.7 | 0.00 | 0.01 | 0.00 | 79 | 1008.8 |
| 20260509213039 | 73 | 59 | 0.0 | 0.0 | 0.00 | 0.00 | 0.00 | 79 | 1008.7 |
| 20260509212831 | 73 | 46 | 0.9 | 1.7 | 0.00 | 0.01 | 0.00 | 78 | 1008.8 |
| 20260509212331 | 73 | 24 | 0.9 | 1.7 | 0.00 | 0.01 | 0.00 | 78 | 1008.9 |
| 20260509211831 | 73 | 9 | 0.0 | 1.7 | 0.00 | 0.01 | 0.00 | 79 | 1008.8 |
| 20260509211532 | 72 | 9 | 0.9 | 0.0 | 0.00 | 0.00 | 0.00 | 78 | 1008.7 |
| 20260509211332 | 73 | 9 | 0.9 | 1.7 | 0.00 | 0.01 | 0.00 | 77 | 1008.8 |
| 20260509210832 | 73 | 42 | 0.0 | 1.7 | 0.00 | 0.01 | 0.00 | 76 | 1008.8 |
| 20260509210415 | 74 | 315 | 0.9 | 4.3 | 0.00 | 0.01 | 0.00 | 74 | 1008.9 |
| 20260509210042 | 74 | 283 | 0.9 | 0.0 | 0.00 | 0.00 | 0.00 | 74 | 1008.7 |
| 20260509205854 | 74 | 99 | 1.7 | 4.3 | 0.00 | 0.01 | 0.00 | 73 | 1008.8 |
| 20260509205333 | 75 | 9 | 0.9 | 4.3 | 0.00 | 0.02 | 0.00 | 74 | 1008.6 |
| 20260509204859 | 75 | 346 | 1.7 | 4.3 | 0.00 | 0.02 | 0.00 | 76 | 1008.6 |
| 20260509204549 | 74 | 292 | 0.9 | 0.0 | 0.00 | 0.00 | 0.00 | 75 | 1008.4 |
| 20260509204336 | 74 | 82 | 0.0 | 3.5 | 0.00 | 0.02 | 0.00 | 79 | 1008.5 |
| 20260509203904 | 73 | 92 | 0.0 | 3.5 | 0.00 | 0.02 | 0.00 | 76 | 1008.8 |
| 20260509203345 | 72 | 36 | 0.9 | 3.5 | 0.00 | 0.02 | 0.00 | 79 | 1008.7 |
| 20260509203014 | 71 | 340 | 0.9 | 0.0 | 0.00 | 0.00 | 0.00 | 79 | 1008.5 |
| 20260509202845 | 72 | 269 | 0.9 | 2.6 | 0.00 | 0.02 | 0.00 | 78 | 1008.7 |
| 20260509202346 | 71 | 360 | 0.9 | 3.5 | 0.00 | 0.02 | 0.00 | 79 | 1008.7 |
| 20260509201846 | 71 | 342 | 1.7 | 6.1 | 0.00 | 0.02 | 0.00 | 79 | 1008.9 |
| 20260509201504 | 71 | 309 | 0.9 | 0.0 | 0.00 | 0.00 | 0.00 | 79 | 1008.9 |
| 20260509201347 | 71 | 348 | 0.9 | 6.1 | 0.00 | 0.02 | 0.00 | 79 | 1009.1 |
| 20260509200847 | 71 | 350 | 0.0 | 2.6 | 0.00 | 0.02 | 0.00 | 79 | 1009.0 |
| 20260509200339 | 71 | 345 | 0.9 | 1.7 | 0.00 | 0.02 | 0.00 | 80 | 1009.0 |
| 20260509200032 | 71 | 80 | 0.0 | 0.0 | 0.00 | 0.00 | 0.00 | 79 | 1009.1 |
| 20260509195841 | 71 | 80 | 0.0 | 0.9 | 0.00 | 0.02 | 0.00 | 80 | 1009.3 |
| 20260509195341 | 72 | 80 | 0.0 | 0.9 | 0.00 | 0.02 | 0.00 | 78 | 1009.3 |
| 20260509194837 | 72 | 80 | 0.0 | 0.9 | 0.00 | 0.02 | 0.00 | 78 | 1009.3 |
| 20260509194526 | 72 | 80 | 0.0 | 0.0 | 0.00 | 0.00 | 0.00 | 78 | 1009.1 |
| 20260509194340 | 72 | 80 | 0.0 | 1.7 | 0.00 | 0.02 | 0.00 | 77 | 1009.3 |
| 20260509193908 | 72 | 80 | 0.0 | 1.7 | 0.00 | 0.02 | 0.00 | 76 | 1009.1 |
| 20260509193416 | 72 | 146 | 0.0 | 1.7 | 0.00 | 0.02 | 0.00 | 75 | 1009.3 |
| 20260509193031 | 72 | 341 | 0.9 | 0.0 | 0.00 | 0.00 | 0.00 | 74 | 1009.2 |
| 20260509192854 | 72 | 47 | 0.0 | 3.5 | 0.00 | 0.02 | 0.00 | 74 | 1009.4 |
| 20260509192357 | 72 | 303 | 0.9 | 3.5 | 0.00 | 0.02 | 0.00 | 73 | 1009.5 |
| 20260509191906 | 73 | 60 | 0.0 | 2.6 | 0.00 | 0.02 | 0.00 | 74 | 1009.5 |
| 20260509191540 | 72 | 60 | 0.9 | 0.0 | 0.00 | 0.00 | 0.00 | 73 | 1009.3 |
| 20260509191347 | 73 | 254 | 0.9 | 2.6 | 0.00 | 0.02 | 0.00 | 73 | 1009.5 |
| 20260509190848 | 72 | 265 | 0.9 | 3.5 | 0.00 | 0.02 | 0.00 | 74 | 1009.5 |
| 20260509190340 | 72 | 53 | 0.9 | 3.5 | 0.00 | 0.02 | 0.00 | 73 | 1009.4 |
| 20260509190008 | 71 | 345 | 0.9 | 0.0 | 0.00 | 0.00 | 0.00 | 75 | 1009.3 |
| 20260509185837 | 72 | 317 | 0.9 | 2.6 | 0.00 | 0.02 | 0.00 | 73 | 1009.5 |
| 20260509185405 | 72 | 237 | 0.9 | 2.6 | 0.00 | 0.03 | 0.00 | 74 | 1009.6 |
| 20260509184846 | 71 | 53 | 0.9 | 2.6 | 0.00 | 0.03 | 0.00 | 76 | 1009.6 |
| 20260509184553 | 71 | 355 | 0.9 | 0.0 | 0.00 | 0.00 | 0.00 | 74 | 1009.5 |
| 20260509184346 | 72 | 344 | 0.9 | 2.6 | 0.00 | 0.03 | 0.00 | 76 | 1009.7 |
| 20260509183845 | 72 | 275 | 0.9 | 2.6 | 0.00 | 0.03 | 0.00 | 72 | 1009.8 |
| 20260509183347 | 72 | 101 | 0.9 | 2.6 | 0.00 | 0.03 | 0.00 | 73 | 1009.8 |
| 20260509183024 | 72 | 19 | 0.9 | 0.0 | 0.00 | 0.00 | 0.00 | 72 | 1009.6 |
| 20260509182848 | 73 | 18 | 0.0 | 6.1 | 0.00 | 0.03 | 0.00 | 72 | 1009.8 |
| 20260509182330 | 73 | 44 | 0.0 | 3.5 | 0.00 | 0.03 | 0.00 | 74 | 1009.9 |
| 20260509181858 | 72 | 63 | 0.9 | 3.5 | 0.00 | 0.03 | 0.00 | 71 | 1010.0 |
| 20260509181620 | 71 | 129 | 0.9 | 0.0 | 0.00 | 0.00 | 0.00 | 70 | 1009.8 |
| 20260509181337 | 72 | 180 | 0.9 | 4.3 | 0.00 | 0.03 | 0.00 | 73 | 1010.1 |
| 20260509180835 | 72 | 59 | 0.9 | 4.3 | 0.00 | 0.03 | 0.00 | 72 | 1010.1 |
| 20260509180331 | 72 | 76 | 1.7 | 3.5 | 0.00 | 0.03 | 0.00 | 70 | 1010.3 |
| 20260509180018 | 71 | 41 | 1.7 | 0.0 | 0.00 | 0.00 | 0.00 | 70 | 1010.2 |
| 20260509175830 | 72 | 59 | 1.7 | 4.3 | 0.00 | 0.03 | 0.00 | 71 | 1010.3 |
| 20260509175332 | 72 | 76 | 2.6 | 4.3 | 0.00 | 0.05 | 0.00 | 68 | 1010.5 |
| 20260509174831 | 72 | 105 | 1.7 | 3.5 | 0.00 | 0.05 | 0.00 | 70 | 1010.5 |
| 20260509174506 | 71 | 88 | 0.9 | 0.0 | 0.00 | 0.00 | 0.00 | 68 | 1010.4 |
| 20260509174332 | 71 | 61 | 0.9 | 3.5 | 0.00 | 0.05 | 0.00 | 69 | 1010.6 |
| 20260509173832 | 71 | 350 | 0.0 | 2.6 | 0.00 | 0.05 | 0.00 | 69 | 1010.5 |
| 20260509173332 | 72 | 5 | 0.9 | 1.7 | 0.00 | 0.05 | 0.00 | 70 | 1010.5 |
| 20260509173102 | 71 | 338 | 0.9 | 0.0 | 0.00 | 0.00 | 0.00 | 68 | 1010.5 |
| 20260509172832 | 71 | 336 | 0.9 | 2.6 | 0.00 | 0.05 | 0.00 | 70 | 1010.7 |
| 20260509172335 | 70 | 76 | 0.9 | 2.6 | 0.00 | 0.05 | 0.00 | 70 | 1010.7 |
| 20260509171837 | 70 | 44 | 0.0 | 2.6 | 0.00 | 0.05 | 0.00 | 70 | 1010.7 |
| 20260509171540 | 70 | 44 | 0.9 | 0.0 | 0.00 | 0.00 | 0.00 | 67 | 1010.5 |
| 20260509171337 | 71 | 327 | 1.7 | 2.6 | 0.00 | 0.05 | 0.00 | 67 | 1010.7 |
| 20260509170838 | 72 | 13 | 0.0 | 4.3 | 0.00 | 0.05 | 0.00 | 69 | 1010.7 |
| 20260509170354 | 71 | 45 | 1.7 | 4.3 | 0.00 | 0.05 | 0.00 | 64 | 1010.7 |
| 20260509170100 | 71 | 263 | 1.7 | 0.0 | 0.00 | 0.00 | 0.00 | 65 | 1010.6 |
| 20260509170007 | 71 | 60 | 1.7 | 0.0 | 0.00 | 0.00 | 0.00 | 64 | 1010.6 |
| 20260509165852 | 71 | 311 | 1.7 | 4.3 | 0.00 | 0.05 | 0.00 | 64 | 1010.7 |
| 20260509165333 | 72 | 307 | 0.9 | 4.3 | 0.00 | 0.07 | 0.00 | 63 | 1010.9 |
| 20260509164834 | 73 | 294 | 0.9 | 4.3 | 0.00 | 0.07 | 0.00 | 71 | 1010.9 |
| 20260509164528 | 72 | 341 | 1.7 | 0.0 | 0.00 | 0.00 | 0.00 | 69 | 1010.7 |
| 20260509164332 | 72 | 105 | 0.9 | 4.3 | 0.00 | 0.07 | 0.00 | 68 | 1010.8 |
| 20260509163859 | 72 | 22 | 0.9 | 4.3 | 0.00 | 0.07 | 0.00 | 69 | 1010.9 |
| 20260509163336 | 71 | 32 | 1.7 | 4.3 | 0.00 | 0.07 | 0.00 | 71 | 1011.0 |
| 20260509163058 | 70 | 330 | 0.9 | 0.0 | 0.00 | 0.00 | 0.00 | 71 | 1010.8 |
| 20260509162836 | 70 | 86 | 2.6 | 4.3 | 0.00 | 0.07 | 0.00 | 69 | 1010.9 |